createdAt,value
2023-06-01T00:02:05.670Z,70.58
2023-06-01T00:04:32.417Z,71.10
2023-06-01T00:07:02.709Z,70.98
2023-06-01T00:09:29.380Z,71.54
2023-06-01T00:11:56.354Z,72.00
2023-06-01T00:14:23.176Z,72.05
2023-06-01T00:16:50.188Z,71.91
2023-06-01T00:19:16.940Z,72.17
2023-06-01T00:21:43.641Z,72.06
2023-06-01T00:24:10.837Z,71.98
2023-06-01T00:26:37.493Z,71.86
2023-06-01T00:29:04.284Z,71.76
2023-06-01T00:31:31.067Z,71.71
2023-06-01T00:33:57.762Z,71.90
2023-06-01T00:36:24.396Z,71.91
2023-06-01T00:38:52.241Z,72.08
2023-06-01T00:41:19.034Z,72.00
2023-06-01T00:43:45.864Z,71.92
2023-06-01T00:46:15.041Z,71.81
2023-06-01T00:48:41.783Z,71.91
2023-06-01T00:51:08.551Z,72.00
2023-06-01T00:53:35.638Z,72.28
2023-06-01T00:56:02.481Z,72.47
2023-06-01T00:58:29.211Z,72.75
2023-06-01T01:00:55.996Z,72.89
2023-06-01T01:03:22.866Z,72.78
2023-06-01T01:05:52.286Z,72.85
2023-06-01T01:08:42.108Z,72.90
2023-06-01T01:11:10.946Z,72.75
2023-06-01T01:14:17.469Z,72.47
2023-06-01T01:16:50.981Z,72.20
2023-06-01T01:19:22.484Z,72.54
2023-06-01T01:22:12.389Z,72.64
2023-06-01T01:25:00.906Z,72.67
2023-06-01T01:27:56.333Z,72.86
2023-06-01T01:30:29.052Z,73.03
2023-06-01T01:32:59.741Z,73.21
2023-06-01T01:35:27.932Z,72.97
2023-06-01T01:37:56.035Z,73.12
2023-06-01T01:40:23.512Z,73.06
2023-06-01T01:42:52.494Z,73.03
2023-06-01T01:45:21.556Z,73.11
2023-06-01T01:48:11.428Z,72.93
2023-06-01T01:50:43.015Z,73.24
2023-06-01T01:53:10.755Z,72.90
2023-06-01T01:55:38.121Z,73.31
2023-06-01T01:58:05.768Z,73.54
2023-06-01T02:00:38.764Z,73.43
2023-06-01T02:03:13.946Z,73.60
2023-06-01T02:05:40.781Z,73.30
2023-06-01T02:08:07.592Z,73.13
2023-06-01T02:10:34.361Z,73.18
2023-06-01T02:13:01.157Z,73.51
2023-06-01T02:15:28.023Z,73.57
2023-06-01T02:17:55.065Z,73.64
2023-06-01T02:20:21.817Z,73.68
2023-06-01T02:22:48.685Z,73.20
2023-06-01T02:25:15.945Z,73.43
2023-06-01T02:27:42.711Z,73.61
2023-06-01T02:30:09.913Z,73.51
2023-06-01T02:32:36.682Z,73.69
2023-06-01T02:35:03.480Z,73.35
2023-06-01T02:37:30.314Z,73.57
2023-06-01T02:39:57.024Z,73.53
2023-06-01T02:42:23.867Z,73.44
2023-06-01T02:44:50.583Z,73.80
2023-06-01T02:47:18.009Z,74.06
2023-06-01T02:49:44.765Z,73.98
2023-06-01T02:52:11.669Z,74.36
2023-06-01T02:54:38.502Z,74.23
2023-06-01T02:57:05.438Z,74.32
2023-06-01T02:59:32.232Z,74.19
2023-06-01T03:01:58.927Z,73.82
2023-06-01T03:04:25.901Z,73.65
2023-06-01T03:06:52.605Z,73.48
2023-06-01T03:09:19.540Z,73.58
2023-06-01T03:11:46.361Z,73.68
2023-06-01T03:14:13.276Z,73.81
2023-06-01T03:16:39.935Z,74.02
2023-06-01T03:19:06.945Z,73.65
2023-06-01T03:21:33.951Z,73.40
2023-06-01T03:24:00.899Z,73.33
2023-06-01T03:26:28.192Z,73.56
2023-06-01T03:28:54.977Z,73.89
2023-06-01T03:31:23.181Z,73.75
2023-06-01T03:33:50.000Z,73.01
2023-06-01T03:36:16.996Z,71.37
2023-06-01T03:38:44.016Z,70.30
2023-06-01T03:41:12.815Z,68.63
2023-06-01T03:43:39.642Z,67.42
2023-06-01T03:46:06.662Z,66.26
2023-06-01T03:48:33.433Z,64.91
2023-06-01T03:51:00.521Z,63.99
2023-06-01T03:53:27.446Z,63.29
2023-06-01T03:55:54.199Z,62.21
2023-06-01T03:58:21.450Z,61.57
2023-06-01T04:00:48.608Z,60.42
2023-06-01T04:03:16.580Z,59.98
2023-06-01T04:05:49.684Z,59.34
2023-06-01T04:08:16.563Z,58.32
2023-06-01T04:10:43.328Z,57.39
2023-06-01T04:13:10.052Z,57.10
2023-06-01T04:15:36.872Z,56.96
2023-06-01T04:18:03.768Z,56.37
2023-06-01T04:20:32.517Z,55.91
2023-06-01T04:22:59.215Z,55.23
2023-06-01T04:25:26.010Z,54.52
2023-06-01T04:27:53.100Z,54.18
2023-06-01T04:30:20.121Z,53.59
2023-06-01T04:32:49.853Z,52.82
2023-06-01T04:35:17.153Z,52.81
2023-06-01T04:37:45.341Z,52.30
2023-06-01T04:40:13.517Z,50.72
2023-06-01T04:42:42.603Z,50.14
2023-06-01T04:45:13.225Z,49.68
2023-06-01T04:47:41.450Z,49.31
2023-06-01T04:50:09.925Z,49.15
2023-06-01T04:52:41.781Z,48.77
2023-06-01T04:55:10.791Z,48.63
2023-06-01T04:57:40.315Z,48.43
2023-06-01T05:00:12.534Z,48.08
2023-06-01T05:02:41.522Z,47.53
2023-06-01T05:05:09.331Z,46.54
2023-06-01T05:07:40.231Z,46.31
2023-06-01T05:10:08.413Z,46.23
2023-06-01T05:12:36.270Z,46.42
2023-06-01T05:15:04.716Z,46.07
2023-06-01T05:17:31.673Z,46.04
2023-06-01T05:19:58.409Z,45.58
2023-06-01T05:22:26.249Z,45.74
2023-06-01T05:24:53.127Z,46.85
2023-06-01T05:27:20.120Z,46.73
2023-06-01T05:29:47.835Z,46.41
2023-06-01T05:32:14.607Z,47.01
2023-06-01T05:34:44.418Z,46.04
2023-06-01T05:37:11.360Z,45.27
2023-06-01T05:39:39.432Z,44.62
2023-06-01T05:42:07.424Z,45.14
2023-06-01T05:44:34.521Z,44.50
2023-06-01T05:47:01.284Z,43.74
2023-06-01T05:49:32.382Z,42.99
2023-06-01T05:52:00.067Z,43.03
2023-06-01T05:54:27.224Z,42.53
2023-06-01T05:56:54.217Z,42.37
2023-06-01T05:59:21.026Z,42.72
2023-06-01T06:01:49.593Z,42.54
2023-06-01T06:04:17.655Z,42.01
2023-06-01T06:06:44.664Z,41.28
2023-06-01T06:09:13.305Z,41.30
2023-06-01T06:11:41.031Z,42.28
2023-06-01T06:14:07.819Z,42.30
2023-06-01T06:16:34.615Z,40.97
2023-06-01T06:19:01.348Z,40.57
2023-06-01T06:21:28.107Z,39.58
2023-06-01T06:24:00.307Z,39.07
2023-06-01T06:26:31.162Z,38.94
2023-06-01T06:29:03.891Z,39.40
2023-06-01T06:31:31.608Z,38.99
2023-06-01T06:33:58.457Z,39.47
2023-06-01T06:36:25.402Z,39.29
2023-06-01T06:38:52.214Z,39.42
2023-06-01T06:41:18.937Z,39.15
2023-06-01T06:43:45.698Z,39.07
2023-06-01T06:46:12.468Z,39.21
2023-06-01T06:48:39.144Z,38.95
2023-06-01T06:51:06.965Z,38.56
2023-06-01T06:53:34.524Z,38.26
2023-06-01T06:56:01.416Z,38.70
2023-06-01T06:58:28.644Z,38.79
2023-06-01T07:00:55.447Z,39.40
2023-06-01T07:03:22.628Z,39.07
2023-06-01T07:05:49.543Z,38.70
2023-06-01T07:08:16.520Z,38.32
2023-06-01T07:10:43.408Z,38.13
2023-06-01T07:13:10.260Z,38.01
2023-06-01T07:15:37.023Z,38.28
2023-06-01T07:18:03.898Z,37.47
2023-06-01T07:20:30.702Z,36.86
2023-06-01T07:22:57.884Z,35.40
2023-06-01T07:25:24.986Z,36.21
2023-06-01T07:27:51.905Z,36.89
2023-06-01T07:30:19.174Z,36.55
2023-06-01T07:32:46.152Z,35.88
2023-06-01T07:35:13.443Z,36.42
2023-06-01T07:37:41.901Z,35.74
2023-06-01T07:40:09.528Z,35.08
2023-06-01T07:42:36.170Z,34.73
2023-06-01T07:45:03.524Z,34.64
2023-06-01T07:47:31.674Z,34.38
2023-06-01T07:49:58.640Z,35.74
2023-06-01T07:52:26.107Z,34.60
2023-06-01T07:54:53.939Z,34.55
2023-06-01T07:57:21.232Z,33.89
2023-06-01T07:59:47.956Z,34.08
2023-06-01T08:02:14.896Z,33.25
2023-06-01T08:04:41.878Z,33.99
2023-06-01T08:07:09.471Z,34.22
2023-06-01T08:09:39.490Z,34.11
2023-06-01T08:12:07.137Z,34.22
2023-06-01T08:14:35.527Z,33.88
2023-06-01T08:17:03.398Z,34.46
2023-06-01T08:19:30.363Z,33.81
2023-06-01T08:21:57.341Z,35.27
2023-06-01T08:24:26.389Z,34.05
2023-06-01T08:26:57.651Z,34.56
2023-06-01T08:29:34.707Z,32.96
2023-06-01T08:32:09.434Z,33.39
2023-06-01T08:34:36.239Z,34.21
2023-06-01T08:37:03.043Z,33.11
2023-06-01T08:39:29.743Z,33.33
2023-06-01T08:42:21.524Z,34.32
2023-06-01T08:44:48.854Z,33.88
2023-06-01T08:47:16.471Z,34.19
2023-06-01T08:49:45.845Z,34.53
2023-06-01T08:52:13.793Z,34.03
2023-06-01T08:54:40.908Z,34.27
2023-06-01T08:57:11.778Z,35.04
2023-06-01T08:59:40.376Z,34.61
2023-06-01T09:02:10.969Z,34.47
2023-06-01T09:04:43.202Z,34.81
2023-06-01T09:07:09.961Z,34.86
2023-06-01T09:09:37.029Z,34.28
2023-06-01T09:12:34.183Z,34.42
2023-06-01T09:15:18.958Z,34.30
2023-06-01T09:17:51.530Z,35.20
2023-06-01T09:20:29.697Z,35.23
2023-06-01T09:22:56.907Z,34.97
2023-06-01T09:25:29.506Z,35.63
2023-06-01T09:27:58.547Z,35.49
2023-06-01T09:30:38.009Z,34.94
2023-06-01T09:33:10.982Z,35.91
2023-06-01T09:35:48.649Z,35.97
2023-06-01T09:38:22.936Z,35.54
2023-06-01T09:41:04.977Z,35.49
2023-06-01T09:43:38.227Z,35.25
2023-06-01T09:46:16.047Z,34.65
2023-06-01T09:48:45.264Z,35.45
2023-06-01T09:51:30.543Z,35.79
2023-06-01T09:53:57.629Z,35.76
2023-06-01T09:56:24.416Z,35.13
2023-06-01T09:58:59.609Z,35.71
2023-06-01T10:01:30.037Z,34.42
2023-06-01T10:03:59.690Z,35.08
2023-06-01T10:06:26.993Z,34.83
2023-06-01T10:08:54.372Z,36.12
2023-06-01T10:11:21.314Z,35.27
2023-06-01T10:13:48.514Z,34.89
2023-06-01T10:16:15.333Z,34.93
2023-06-01T10:18:42.700Z,34.64
2023-06-01T10:21:09.539Z,34.54
2023-06-01T10:23:36.527Z,35.03
2023-06-01T10:26:16.545Z,34.64
2023-06-01T10:28:46.502Z,34.16
2023-06-01T10:31:37.146Z,35.25
2023-06-01T10:34:05.084Z,34.97
2023-06-01T10:36:53.416Z,34.73
2023-06-01T10:39:30.269Z,34.52
2023-06-01T10:41:59.235Z,34.07
2023-06-01T10:44:41.663Z,35.31
2023-06-01T10:47:14.662Z,34.68
2023-06-01T10:49:52.278Z,32.30
2023-06-01T10:52:34.358Z,31.53
2023-06-01T10:55:07.058Z,32.51
2023-06-01T10:57:41.904Z,32.98
2023-06-01T11:00:16.986Z,33.39
2023-06-01T11:02:51.725Z,32.99
2023-06-01T11:05:38.252Z,32.67
2023-06-01T11:08:11.044Z,33.22
2023-06-01T11:10:55.818Z,33.18
2023-06-01T11:13:31.743Z,32.18
2023-06-01T11:16:10.089Z,33.59
2023-06-01T11:18:51.074Z,33.10
2023-06-01T11:21:25.906Z,32.30
2023-06-01T11:23:55.608Z,32.89
2023-06-01T11:26:29.380Z,32.08
2023-06-01T11:29:10.551Z,32.87
2023-06-01T11:31:38.688Z,32.54
2023-06-01T11:34:06.039Z,31.67
2023-06-01T11:36:38.179Z,32.07
2023-06-01T11:39:19.963Z,31.60
2023-06-01T11:41:49.396Z,31.97
2023-06-01T11:44:16.286Z,32.42
2023-06-01T11:46:57.510Z,31.69
2023-06-01T11:49:24.716Z,32.17
2023-06-01T11:51:57.190Z,32.61
2023-06-01T11:54:27.727Z,32.94
2023-06-01T11:56:58.196Z,33.07
2023-06-01T11:59:26.836Z,33.03
2023-06-01T12:01:54.745Z,33.39
2023-06-01T12:04:26.425Z,33.35
2023-06-01T12:07:06.988Z,33.13
2023-06-01T12:09:34.755Z,33.15
2023-06-01T12:12:02.000Z,33.06
2023-06-01T12:14:28.805Z,32.46
2023-06-01T12:16:59.811Z,32.61
2023-06-01T12:19:28.156Z,32.55
2023-06-01T12:21:56.845Z,32.67
2023-06-01T12:24:36.232Z,32.56
2023-06-01T12:27:04.221Z,32.40
2023-06-01T12:29:45.148Z,32.32
2023-06-01T12:32:13.567Z,30.97
2023-06-01T12:34:46.952Z,31.82
2023-06-01T12:37:17.217Z,32.42
2023-06-01T12:39:44.617Z,33.22
2023-06-01T12:42:13.041Z,33.35
2023-06-01T12:44:42.831Z,33.01
2023-06-01T12:47:11.199Z,32.54
2023-06-01T12:49:39.282Z,33.14
2023-06-01T12:52:06.366Z,33.02
2023-06-01T12:54:34.171Z,32.58
2023-06-01T12:57:01.370Z,33.03
2023-06-01T12:59:30.169Z,33.38
2023-06-01T13:01:56.992Z,32.73
2023-06-01T13:04:24.405Z,32.48
2023-06-01T13:06:52.176Z,32.69
2023-06-01T13:09:19.499Z,33.31
2023-06-01T13:11:46.453Z,32.58
2023-06-01T13:14:13.195Z,32.26
2023-06-01T13:16:41.070Z,32.71
2023-06-01T13:19:08.352Z,32.74
2023-06-01T13:21:35.168Z,31.56
2023-06-01T13:24:03.306Z,31.90
2023-06-01T13:26:30.458Z,32.27
2023-06-01T13:28:57.262Z,31.65
2023-06-01T13:31:24.497Z,31.63
2023-06-01T13:33:51.641Z,31.62
2023-06-01T13:36:21.981Z,31.79
2023-06-01T13:38:51.979Z,31.52
2023-06-01T13:41:18.692Z,30.82
2023-06-01T13:43:45.366Z,30.95
2023-06-01T13:46:12.466Z,31.17
2023-06-01T13:48:39.173Z,31.33
2023-06-01T13:51:07.216Z,31.69
2023-06-01T13:53:34.778Z,32.23
2023-06-01T13:56:02.059Z,32.46
2023-06-01T13:58:28.977Z,32.51
2023-06-01T14:00:56.186Z,32.69
2023-06-01T14:03:23.113Z,32.60
2023-06-01T14:05:54.983Z,33.12
2023-06-01T14:08:23.432Z,33.69
2023-06-01T14:10:50.183Z,33.48
2023-06-01T14:13:16.972Z,33.26
2023-06-01T14:15:44.011Z,33.52
2023-06-01T14:18:11.080Z,33.50
2023-06-01T14:20:39.186Z,33.83
2023-06-01T14:23:06.282Z,33.79
2023-06-01T14:25:32.953Z,33.57
2023-06-01T14:27:59.681Z,34.06
2023-06-01T14:30:28.266Z,34.33
2023-06-01T14:32:55.517Z,34.74
2023-06-01T14:35:22.351Z,34.70
2023-06-01T14:37:50.621Z,34.47
2023-06-01T14:40:18.191Z,34.55
2023-06-01T14:42:45.294Z,35.02
2023-06-01T14:45:15.120Z,35.25
2023-06-01T14:47:45.095Z,35.91
2023-06-01T14:50:12.327Z,35.77
2023-06-01T14:52:39.515Z,35.70
2023-06-01T14:55:07.554Z,35.90
2023-06-01T14:57:34.300Z,35.96
2023-06-01T15:00:04.634Z,36.51
2023-06-01T15:02:32.682Z,37.20
2023-06-01T15:05:00.506Z,35.63
2023-06-01T15:07:27.290Z,35.80
2023-06-01T15:09:54.707Z,35.97
2023-06-01T15:12:22.003Z,36.11
2023-06-01T15:14:49.551Z,35.79
2023-06-01T15:17:16.745Z,37.41
2023-06-01T15:19:43.777Z,37.46
2023-06-01T15:22:11.060Z,37.85
2023-06-01T15:24:39.067Z,38.80
2023-06-01T15:27:07.139Z,38.63
2023-06-01T15:32:02.349Z,38.10
2023-06-01T15:34:29.075Z,38.41
2023-06-01T15:36:56.633Z,38.21
2023-06-01T15:39:23.736Z,38.13
2023-06-01T15:41:57.446Z,38.50
2023-06-01T15:44:24.622Z,38.52
2023-06-01T15:46:51.507Z,38.56
2023-06-01T15:49:18.361Z,38.79
2023-06-01T15:51:45.191Z,38.62
2023-06-01T15:54:11.860Z,38.70
2023-06-01T15:56:38.650Z,37.81
2023-06-01T15:59:06.050Z,37.41
2023-06-01T16:01:33.626Z,38.18
2023-06-01T16:04:00.903Z,38.72
2023-06-01T16:06:27.944Z,37.51
2023-06-01T16:08:54.806Z,37.28
2023-06-01T16:11:21.790Z,36.42
2023-06-01T16:13:48.659Z,36.37
2023-06-01T16:16:16.773Z,37.03
2023-06-01T16:18:43.896Z,36.04
2023-06-01T16:21:10.780Z,36.12
2023-06-01T16:23:37.557Z,36.46
2023-06-01T16:26:04.288Z,36.93
2023-06-01T16:28:31.203Z,37.25
2023-06-01T16:30:57.992Z,37.47
2023-06-01T16:33:27.590Z,37.60
2023-06-01T16:35:56.030Z,37.56
2023-06-01T16:38:22.783Z,37.10
2023-06-01T16:40:49.561Z,37.70
2023-06-01T16:43:19.277Z,37.68
2023-06-01T16:45:46.811Z,37.97
2023-06-01T16:48:13.902Z,38.53
2023-06-01T16:50:45.052Z,38.27
2023-06-01T16:53:12.757Z,38.27
2023-06-01T16:55:39.601Z,38.31
2023-06-01T16:58:06.731Z,38.65
2023-06-01T17:00:33.884Z,38.35
2023-06-01T17:03:00.947Z,38.93
2023-06-01T17:05:28.164Z,39.25
2023-06-01T17:07:55.008Z,39.58
2023-06-01T17:10:21.860Z,39.65
2023-06-01T17:12:48.634Z,40.13
2023-06-01T17:15:15.413Z,40.84
2023-06-01T17:17:42.310Z,40.73
2023-06-01T17:20:09.665Z,40.92
2023-06-01T17:22:36.486Z,41.04
2023-06-01T17:25:04.626Z,40.98
2023-06-01T17:27:31.387Z,41.46
2023-06-01T17:29:58.265Z,41.64
2023-06-01T17:32:26.829Z,41.74
2023-06-01T17:34:53.634Z,41.93
2023-06-01T17:37:20.382Z,42.29
2023-06-01T17:39:47.176Z,42.33
2023-06-01T17:42:13.880Z,42.60
2023-06-01T17:44:40.576Z,42.94
2023-06-01T17:47:07.701Z,43.27
2023-06-01T17:49:34.546Z,43.89
2023-06-01T17:52:01.428Z,43.79
2023-06-01T17:54:30.542Z,44.21
2023-06-01T17:56:57.307Z,44.56
2023-06-01T17:59:23.997Z,44.81
2023-06-01T18:01:51.017Z,44.81
2023-06-01T18:04:18.343Z,45.10
2023-06-01T18:06:45.186Z,45.71
2023-06-01T18:09:14.000Z,46.16
2023-06-01T18:11:41.012Z,46.47
2023-06-01T18:14:07.657Z,47.07
2023-06-01T18:16:34.573Z,47.45
2023-06-01T18:19:01.365Z,48.17
2023-06-01T18:21:28.246Z,48.28
2023-06-01T18:23:55.025Z,48.50
2023-06-01T18:26:21.833Z,49.21
2023-06-01T18:28:49.684Z,49.80
2023-06-01T18:31:16.413Z,50.14
2023-06-01T18:33:43.274Z,50.38
2023-06-01T18:36:10.059Z,50.66
2023-06-01T18:38:37.686Z,50.70
2023-06-01T18:41:12.714Z,51.15
2023-06-01T18:43:39.515Z,51.28
2023-06-01T18:46:06.532Z,51.38
2023-06-01T18:48:33.689Z,51.59
2023-06-01T18:51:01.052Z,51.82
2023-06-01T18:53:27.927Z,51.99
2023-06-01T18:55:54.683Z,52.34
2023-06-01T18:58:21.540Z,52.91
2023-06-01T19:00:48.779Z,53.46
2023-06-01T19:03:18.682Z,53.97
2023-06-01T19:05:45.962Z,54.41
2023-06-01T19:08:21.041Z,54.82
2023-06-01T19:11:05.827Z,55.38
2023-06-01T19:13:44.738Z,55.58
2023-06-01T19:16:25.887Z,55.92
2023-06-01T19:18:55.158Z,56.53
2023-06-01T19:21:23.795Z,56.33
2023-06-01T19:23:52.233Z,56.49
2023-06-01T19:26:25.384Z,56.66
2023-06-01T19:29:00.755Z,57.35
2023-06-01T19:31:36.492Z,57.70
2023-06-01T19:34:05.133Z,57.85
2023-06-01T19:36:55.359Z,57.98
2023-06-01T19:39:34.428Z,58.33
2023-06-01T19:42:04.817Z,58.72
2023-06-01T19:44:34.276Z,58.84
2023-06-01T19:47:04.779Z,59.29
2023-06-01T19:49:37.825Z,59.57
2023-06-01T19:52:06.929Z,59.65
2023-06-01T19:54:33.683Z,59.84
2023-06-01T19:57:01.826Z,60.14
2023-06-01T19:59:29.884Z,60.38
2023-06-01T20:02:01.717Z,60.30
2023-06-01T20:04:32.080Z,60.77
2023-06-01T20:07:00.680Z,61.03
2023-06-01T20:09:27.694Z,61.21
2023-06-01T20:11:58.681Z,61.59
2023-06-01T20:14:31.623Z,61.37
2023-06-01T20:17:01.973Z,61.75
2023-06-01T20:19:30.176Z,62.06
2023-06-01T20:21:59.657Z,62.02
2023-06-01T20:24:28.706Z,62.07
2023-06-01T20:27:04.391Z,62.30
2023-06-01T20:29:38.667Z,62.20
2023-06-01T20:32:05.969Z,62.15
2023-06-01T20:34:33.283Z,62.41
2023-06-01T20:37:00.941Z,62.51
2023-06-01T20:39:27.721Z,62.58
2023-06-01T20:41:57.284Z,62.53
2023-06-01T20:44:24.290Z,62.73
2023-06-01T20:46:53.426Z,62.91
2023-06-01T20:49:26.539Z,63.18
2023-06-01T20:51:53.968Z,63.39
2023-06-01T20:54:22.977Z,63.61
2023-06-01T20:56:51.893Z,63.59
2023-06-01T20:59:31.413Z,63.72
2023-06-01T21:02:10.372Z,63.68
2023-06-01T21:04:41.237Z,63.91
2023-06-01T21:07:08.796Z,64.04
2023-06-01T21:09:35.995Z,64.36
2023-06-01T21:12:03.288Z,64.34
2023-06-01T21:14:32.086Z,64.22
2023-06-01T21:16:59.255Z,64.28
2023-06-01T21:19:26.094Z,64.26
2023-06-01T21:21:52.891Z,64.55
2023-06-01T21:24:19.675Z,64.50
2023-06-01T21:26:46.492Z,64.45
2023-06-01T21:29:13.274Z,64.41
2023-06-01T21:31:40.130Z,64.51
2023-06-01T21:34:07.240Z,64.51
2023-06-01T21:36:34.063Z,64.54
2023-06-01T21:39:00.935Z,64.51
2023-06-01T21:41:27.924Z,64.39
2023-06-01T21:43:54.807Z,64.58
2023-06-01T21:46:21.605Z,64.66
2023-06-01T21:48:48.573Z,64.64
2023-06-01T21:51:15.791Z,64.72
2023-06-01T21:53:42.606Z,64.78
2023-06-01T21:56:09.451Z,64.95
2023-06-01T21:58:39.122Z,65.11
2023-06-01T22:01:06.959Z,65.06
2023-06-01T22:03:34.343Z,65.20
2023-06-01T22:06:01.673Z,65.14
2023-06-01T22:08:30.732Z,65.44
2023-06-01T22:10:57.404Z,65.31
2023-06-01T22:13:24.223Z,65.19
2023-06-01T22:15:50.968Z,65.07
2023-06-01T22:18:17.764Z,65.06
2023-06-01T22:20:44.479Z,65.33
2023-06-01T22:23:11.385Z,65.43
2023-06-01T22:25:39.162Z,65.29
2023-06-01T22:28:06.588Z,65.35
2023-06-01T22:30:33.630Z,65.28
2023-06-01T22:33:01.970Z,65.31
2023-06-01T22:35:28.908Z,65.32
2023-06-01T22:37:55.662Z,65.51
2023-06-01T22:40:22.386Z,65.61
2023-06-01T22:42:50.562Z,65.72
2023-06-01T22:45:19.209Z,65.77
2023-06-01T22:47:45.991Z,65.76
2023-06-01T22:50:13.228Z,66.09
2023-06-01T22:52:40.039Z,66.56
2023-06-01T22:55:07.250Z,66.44
2023-06-01T22:57:34.643Z,66.46
2023-06-01T23:00:01.571Z,66.55
2023-06-01T23:02:28.499Z,66.69
2023-06-01T23:04:55.424Z,66.93
2023-06-01T23:07:22.635Z,67.14
2023-06-01T23:09:50.342Z,67.43
2023-06-01T23:12:17.150Z,67.57
2023-06-01T23:14:43.951Z,67.84
2023-06-01T23:17:14.727Z,67.87
2023-06-01T23:19:43.001Z,68.14
2023-06-01T23:22:12.979Z,68.11
2023-06-01T23:24:40.217Z,68.22
2023-06-01T23:27:08.287Z,68.37
2023-06-01T23:29:36.013Z,68.20
2023-06-01T23:32:03.213Z,68.35
2023-06-01T23:34:30.219Z,68.46
2023-06-01T23:37:02.547Z,68.68
2023-06-01T23:39:30.367Z,68.70
2023-06-01T23:41:57.212Z,68.90
2023-06-01T23:44:24.112Z,69.45
2023-06-01T23:46:50.869Z,69.66
2023-06-01T23:49:17.761Z,69.99
2023-06-01T23:51:44.593Z,70.61
2023-06-01T23:54:11.942Z,70.81
2023-06-01T23:56:38.767Z,71.04
2023-06-01T23:59:05.601Z,71.09
